createdAt,value
2023-03-17T00:01:54.398Z,50.23
2023-03-17T00:04:24.206Z,49.19
2023-03-17T00:06:51.746Z,49.73
2023-03-17T00:09:19.838Z,50.04
2023-03-17T00:11:47.000Z,49.78
2023-03-17T00:14:26.941Z,49.67
2023-03-17T00:16:53.495Z,49.36
2023-03-17T00:19:26.581Z,49.72
2023-03-17T00:21:53.195Z,49.91
2023-03-17T00:24:19.657Z,50.61
2023-03-17T00:26:46.130Z,49.68
2023-03-17T00:29:13.269Z,49.35
2023-03-17T00:31:40.141Z,49.34
2023-03-17T00:34:07.907Z,48.32
2023-03-17T00:36:34.597Z,47.86
2023-03-17T00:39:01.447Z,49.47
2023-03-17T00:41:29.444Z,49.29
2023-03-17T00:43:56.143Z,48.99
2023-03-17T00:46:35.331Z,48.76
2023-03-17T00:49:03.657Z,48.85
2023-03-17T00:51:30.061Z,49.19
2023-03-17T00:53:56.965Z,49.71
2023-03-17T00:56:23.400Z,49.42
2023-03-17T00:58:49.943Z,49.45
2023-03-17T01:01:16.508Z,50.01
2023-03-17T01:03:43.009Z,50.05
2023-03-17T01:06:12.955Z,49.78
2023-03-17T01:08:41.074Z,50.10
2023-03-17T01:11:14.849Z,49.91
2023-03-17T01:13:41.610Z,49.40
2023-03-17T01:16:12.323Z,48.52
2023-03-17T01:18:39.641Z,47.84
2023-03-17T01:21:06.683Z,47.85
2023-03-17T01:23:33.913Z,47.79
2023-03-17T01:26:00.668Z,48.07
2023-03-17T01:28:27.106Z,49.21
2023-03-17T01:30:53.558Z,50.40
2023-03-17T01:33:20.647Z,49.25
2023-03-17T01:35:47.230Z,49.72
2023-03-17T01:38:15.047Z,49.32
2023-03-17T01:40:47.962Z,49.98
2023-03-17T01:43:24.520Z,48.42
2023-03-17T01:46:16.016Z,48.63
2023-03-17T01:49:06.699Z,48.90
2023-03-17T01:51:51.454Z,49.34
2023-03-17T01:54:42.010Z,49.43
2023-03-17T01:57:32.607Z,49.65
2023-03-17T02:00:05.219Z,48.38
2023-03-17T02:02:37.672Z,48.20
2023-03-17T02:05:06.846Z,48.58
2023-03-17T02:07:34.032Z,47.88
2023-03-17T02:10:00.942Z,48.22
2023-03-17T02:12:29.156Z,47.70
2023-03-17T02:14:55.928Z,47.76
2023-03-17T02:17:24.835Z,48.38
2023-03-17T02:19:51.817Z,48.33
2023-03-17T02:22:19.550Z,52.43
2023-03-17T02:24:51.082Z,52.99
2023-03-17T02:27:22.995Z,50.36
2023-03-17T02:29:49.587Z,48.65
2023-03-17T02:32:18.448Z,49.59
2023-03-17T02:34:47.130Z,49.51
2023-03-17T02:37:15.031Z,48.36
2023-03-17T02:39:41.506Z,48.44
2023-03-17T02:42:08.572Z,48.11
2023-03-17T02:44:35.383Z,48.69
2023-03-17T02:47:01.991Z,49.20
2023-03-17T02:49:29.387Z,49.70
2023-03-17T02:51:55.933Z,50.44
2023-03-17T02:54:22.446Z,51.21
2023-03-17T02:56:48.936Z,51.57
2023-03-17T02:59:16.127Z,50.53
2023-03-17T03:01:42.794Z,48.32
2023-03-17T03:04:09.550Z,48.20
2023-03-17T03:06:37.415Z,49.61
2023-03-17T03:09:03.852Z,50.40
2023-03-17T03:11:30.326Z,49.56
2023-03-17T03:13:56.938Z,49.06
2023-03-17T03:16:24.059Z,48.99
2023-03-17T03:18:50.569Z,50.13
2023-03-17T03:21:17.015Z,50.16
2023-03-17T03:23:43.461Z,49.89
2023-03-17T03:26:09.884Z,49.04
2023-03-17T03:28:36.388Z,49.03
2023-03-17T03:31:02.848Z,48.72
2023-03-17T03:33:29.300Z,49.78
2023-03-17T03:35:55.803Z,49.75
2023-03-17T03:38:22.496Z,49.17
2023-03-17T03:40:48.910Z,47.74
2023-03-17T03:43:22.845Z,47.74
2023-03-17T03:45:50.337Z,47.17
2023-03-17T03:48:17.020Z,48.48
2023-03-17T03:50:43.482Z,48.78
2023-03-17T03:53:09.971Z,48.81
2023-03-17T03:55:36.432Z,49.00
2023-03-17T03:58:02.989Z,48.33
2023-03-17T04:00:29.795Z,48.32
2023-03-17T04:02:56.469Z,47.24
2023-03-17T04:05:23.062Z,48.50
2023-03-17T04:07:49.454Z,48.40
2023-03-17T04:10:16.432Z,47.91
2023-03-17T04:12:43.323Z,47.90
2023-03-17T04:15:13.744Z,47.59
2023-03-17T04:17:40.208Z,48.88
2023-03-17T04:20:07.236Z,48.46
2023-03-17T04:22:33.792Z,49.28
2023-03-17T04:25:00.330Z,48.67
2023-03-17T04:27:27.043Z,49.03
2023-03-17T04:29:53.731Z,48.73
2023-03-17T04:32:20.778Z,48.16
2023-03-17T04:34:47.199Z,48.58
2023-03-17T04:37:14.092Z,48.33
2023-03-17T04:39:40.553Z,47.85
2023-03-17T04:42:07.561Z,48.59
2023-03-17T04:44:34.091Z,49.59
2023-03-17T04:47:00.897Z,50.21
2023-03-17T04:49:28.004Z,50.20
2023-03-17T04:51:54.525Z,50.25
2023-03-17T04:54:21.263Z,49.75
2023-03-17T04:56:47.702Z,50.04
2023-03-17T04:59:14.163Z,50.10
2023-03-17T05:01:41.009Z,50.05
2023-03-17T05:04:08.031Z,49.56
2023-03-17T05:06:34.707Z,49.44
2023-03-17T05:09:01.341Z,49.89
2023-03-17T05:11:27.749Z,49.89
2023-03-17T05:13:54.163Z,49.91
2023-03-17T05:16:20.787Z,49.52
2023-03-17T05:18:47.722Z,49.99
2023-03-17T05:21:14.315Z,50.46
2023-03-17T05:23:41.792Z,49.88
2023-03-17T05:26:08.513Z,49.78
2023-03-17T05:28:34.985Z,50.81
2023-03-17T05:31:01.520Z,50.58
2023-03-17T05:33:28.855Z,49.76
2023-03-17T05:35:55.429Z,49.54
2023-03-17T05:38:21.983Z,49.61
2023-03-17T05:40:52.583Z,49.62
2023-03-17T05:43:19.475Z,50.20
2023-03-17T05:45:47.240Z,50.07
2023-03-17T05:48:13.752Z,50.05
2023-03-17T05:50:41.572Z,50.41
2023-03-17T05:53:08.273Z,49.70
2023-03-17T05:55:34.731Z,49.75
2023-03-17T05:58:01.360Z,50.94
2023-03-17T06:00:29.333Z,51.30
2023-03-17T06:02:55.973Z,49.37
2023-03-17T06:05:22.459Z,49.82
2023-03-17T06:07:54.909Z,50.03
2023-03-17T06:10:23.790Z,49.25
2023-03-17T06:12:50.405Z,49.66
2023-03-17T06:15:17.157Z,50.19
2023-03-17T06:17:43.871Z,49.89
2023-03-17T06:20:11.666Z,50.69
2023-03-17T06:22:39.741Z,52.21
2023-03-17T06:25:10.180Z,52.14
2023-03-17T06:27:37.865Z,51.54
2023-03-17T06:30:06.275Z,51.51
2023-03-17T06:32:33.038Z,50.92
2023-03-17T06:34:59.478Z,50.19
2023-03-17T06:37:25.920Z,50.99
2023-03-17T06:39:52.412Z,49.68
2023-03-17T06:42:19.177Z,48.75
2023-03-17T06:44:46.081Z,49.09
2023-03-17T06:47:12.648Z,47.96
2023-03-17T06:49:39.116Z,47.96
2023-03-17T06:52:05.763Z,47.39
2023-03-17T06:54:32.672Z,46.58
2023-03-17T06:56:59.088Z,46.96
2023-03-17T06:59:26.065Z,46.73
2023-03-17T07:01:52.597Z,46.01
2023-03-17T07:04:19.707Z,46.32
2023-03-17T07:06:46.180Z,46.56
2023-03-17T07:09:12.640Z,46.18
2023-03-17T07:11:39.176Z,46.99
2023-03-17T07:14:06.304Z,46.29
2023-03-17T07:16:32.891Z,47.38
2023-03-17T07:19:01.441Z,46.99
2023-03-17T07:21:28.177Z,47.26
2023-03-17T07:23:54.961Z,47.43
2023-03-17T07:26:21.506Z,46.42
2023-03-17T07:28:47.947Z,46.96
2023-03-17T07:31:14.921Z,46.41
2023-03-17T07:33:41.904Z,46.28
2023-03-17T07:36:09.240Z,44.86
2023-03-17T07:38:36.324Z,44.59
2023-03-17T07:41:04.615Z,44.26
2023-03-17T07:43:31.699Z,44.28
2023-03-17T07:45:58.172Z,44.70
2023-03-17T07:48:24.662Z,43.36
2023-03-17T07:50:51.340Z,43.93
2023-03-17T07:53:18.466Z,42.89
2023-03-17T07:55:44.951Z,42.63
2023-03-17T07:58:12.605Z,43.19
2023-03-17T08:00:40.806Z,41.96
2023-03-17T08:03:10.750Z,41.88
2023-03-17T08:05:37.970Z,40.37
2023-03-17T08:08:06.545Z,39.19
2023-03-17T08:10:33.555Z,40.32
2023-03-17T08:13:00.825Z,38.46
2023-03-17T08:15:27.509Z,38.60
2023-03-17T08:17:54.113Z,38.30
2023-03-17T08:20:21.758Z,37.99
2023-03-17T08:22:48.208Z,38.17
2023-03-17T08:25:19.690Z,38.23
2023-03-17T08:27:46.589Z,37.45
2023-03-17T08:30:13.329Z,38.70
2023-03-17T08:32:39.978Z,39.03
2023-03-17T08:35:06.644Z,37.63
2023-03-17T08:37:33.186Z,38.44
2023-03-17T08:40:00.888Z,39.01
2023-03-17T08:42:27.417Z,38.99
2023-03-17T08:44:55.224Z,39.75
2023-03-17T08:47:21.765Z,38.51
2023-03-17T08:49:48.183Z,38.23
2023-03-17T08:52:14.791Z,38.28
2023-03-17T08:54:41.222Z,36.41
2023-03-17T08:57:08.023Z,37.23
2023-03-17T08:59:34.504Z,36.78
2023-03-17T09:02:00.983Z,37.69
2023-03-17T09:04:27.965Z,36.72
2023-03-17T09:07:03.279Z,37.18
2023-03-17T09:09:31.076Z,37.71
2023-03-17T09:11:58.410Z,38.31
2023-03-17T09:14:25.032Z,37.79
2023-03-17T09:16:52.255Z,38.30
2023-03-17T09:19:18.966Z,37.64
2023-03-17T09:21:45.725Z,38.06
2023-03-17T09:24:12.493Z,38.96
2023-03-17T09:26:39.271Z,38.17
2023-03-17T09:29:07.156Z,39.18
2023-03-17T09:31:36.078Z,38.65
2023-03-17T09:34:04.915Z,38.79
2023-03-17T09:36:34.776Z,39.64
2023-03-17T09:39:01.383Z,40.25
2023-03-17T09:41:35.233Z,39.65
2023-03-17T09:44:30.054Z,39.19
2023-03-17T09:47:13.813Z,39.45
2023-03-17T09:49:52.284Z,40.08
2023-03-17T09:52:31.735Z,39.75
2023-03-17T09:55:00.107Z,40.32
2023-03-17T09:57:29.432Z,40.08
2023-03-17T10:00:18.899Z,39.84
2023-03-17T10:02:46.186Z,39.37
2023-03-17T10:05:20.563Z,39.98
2023-03-17T10:08:02.575Z,38.62
2023-03-17T10:10:48.061Z,38.33
2023-03-17T10:13:14.637Z,39.25
2023-03-17T10:15:51.324Z,38.97
2023-03-17T10:18:22.950Z,39.94
2023-03-17T10:21:02.175Z,39.89
2023-03-17T10:23:33.094Z,39.88
2023-03-17T10:26:09.478Z,39.50
2023-03-17T10:28:38.730Z,40.36
2023-03-17T10:31:16.437Z,41.03
2023-03-17T10:33:44.508Z,39.38
2023-03-17T10:36:14.990Z,38.89
2023-03-17T10:38:41.516Z,38.62
2023-03-17T10:41:13.434Z,38.95
2023-03-17T10:43:45.712Z,38.46
2023-03-17T10:46:22.338Z,38.57
2023-03-17T10:48:57.079Z,37.71
2023-03-17T10:51:33.595Z,37.47
2023-03-17T10:54:03.801Z,36.88
2023-03-17T10:56:36.312Z,37.03
2023-03-17T10:59:21.239Z,38.76
2023-03-17T11:01:53.973Z,36.68
2023-03-17T11:04:36.244Z,37.40
2023-03-17T11:07:10.738Z,37.39
2023-03-17T11:09:37.983Z,36.79
2023-03-17T11:12:22.777Z,37.23
2023-03-17T11:14:49.807Z,37.06
2023-03-17T11:17:31.560Z,36.82
2023-03-17T11:20:16.835Z,36.20
2023-03-17T11:22:53.679Z,37.33
2023-03-17T11:25:20.946Z,36.09
2023-03-17T11:27:53.761Z,38.45
2023-03-17T11:30:33.523Z,38.71
2023-03-17T11:33:08.976Z,37.37
2023-03-17T11:35:38.450Z,35.97
2023-03-17T11:38:28.371Z,35.75
2023-03-17T11:41:05.177Z,35.42
2023-03-17T11:43:45.338Z,35.47
2023-03-17T11:46:24.063Z,35.39
2023-03-17T11:49:11.673Z,36.14
2023-03-17T11:51:52.101Z,34.26
2023-03-17T11:54:44.515Z,34.47
2023-03-17T11:57:30.076Z,34.29
2023-03-17T12:00:34.779Z,34.29
2023-03-17T12:03:13.255Z,34.81
2023-03-17T12:05:41.077Z,34.40
2023-03-17T12:08:29.800Z,34.11
2023-03-17T12:10:59.850Z,34.49
2023-03-17T12:14:09.759Z,34.41
2023-03-17T12:16:44.282Z,34.36
2023-03-17T12:19:19.410Z,34.75
2023-03-17T12:21:46.522Z,33.33
2023-03-17T12:24:34.943Z,33.34
2023-03-17T12:27:09.192Z,34.03
2023-03-17T12:29:51.809Z,32.87
2023-03-17T12:32:37.148Z,33.16
2023-03-17T12:35:29.744Z,33.31
2023-03-17T12:37:59.954Z,35.33
2023-03-17T12:40:35.450Z,34.74
2023-03-17T12:43:20.388Z,34.97
2023-03-17T12:46:03.852Z,34.46
2023-03-17T12:48:33.682Z,34.79
2023-03-17T12:51:21.718Z,35.25
2023-03-17T12:53:50.669Z,34.98
2023-03-17T12:56:22.462Z,35.03
2023-03-17T12:58:51.549Z,35.93
2023-03-17T13:01:32.290Z,34.72
2023-03-17T13:04:17.008Z,34.15
2023-03-17T13:06:53.449Z,33.92
2023-03-17T13:09:33.164Z,33.98
2023-03-17T13:12:01.204Z,33.88
2023-03-17T13:14:39.562Z,33.87
2023-03-17T13:17:19.375Z,33.71
2023-03-17T13:20:09.782Z,34.03
2023-03-17T13:22:40.841Z,35.64
2023-03-17T13:25:25.773Z,34.49
2023-03-17T13:27:52.251Z,34.19
2023-03-17T13:30:26.689Z,33.00
2023-03-17T13:33:02.551Z,31.91
2023-03-17T13:35:57.040Z,29.69
2023-03-17T13:38:38.702Z,27.71
2023-03-17T13:41:27.829Z,28.34
2023-03-17T13:44:13.605Z,28.98
2023-03-17T13:46:44.242Z,28.76
2023-03-17T13:49:14.772Z,29.45
2023-03-17T13:51:52.782Z,28.34
2023-03-17T13:54:28.679Z,29.76
2023-03-17T13:56:59.243Z,29.75
2023-03-17T13:59:48.035Z,29.15
2023-03-17T14:02:21.491Z,29.68
2023-03-17T14:04:50.928Z,28.87
2023-03-17T14:07:23.046Z,27.97
2023-03-17T14:09:55.638Z,28.70
2023-03-17T14:12:32.515Z,29.28
2023-03-17T14:15:07.616Z,30.34
2023-03-17T14:17:53.909Z,28.45
2023-03-17T14:20:27.860Z,29.57
2023-03-17T14:22:59.258Z,29.18
2023-03-17T14:25:31.719Z,28.66
2023-03-17T14:27:59.003Z,28.24
2023-03-17T14:30:29.542Z,29.12
2023-03-17T14:33:04.477Z,28.14
2023-03-17T14:35:33.740Z,28.14
2023-03-17T14:38:01.397Z,27.46
2023-03-17T14:40:30.204Z,27.44
2023-03-17T14:42:57.332Z,27.61
2023-03-17T14:45:29.089Z,27.31
2023-03-17T14:47:56.071Z,27.99
2023-03-17T14:50:30.500Z,28.30
2023-03-17T14:53:00.811Z,27.73
2023-03-17T14:55:39.692Z,27.67
2023-03-17T14:58:10.023Z,29.36
2023-03-17T15:00:49.696Z,28.07
2023-03-17T15:03:22.491Z,28.22
2023-03-17T15:05:50.297Z,29.29
2023-03-17T15:08:40.994Z,28.02
2023-03-17T15:11:08.211Z,27.66
2023-03-17T15:13:38.106Z,27.96
2023-03-17T15:16:18.249Z,27.86
2023-03-17T15:18:45.422Z,28.24
2023-03-17T15:21:32.360Z,28.44
2023-03-17T15:24:04.844Z,29.65
2023-03-17T15:26:31.586Z,29.56
2023-03-17T15:29:00.122Z,28.56
2023-03-17T15:31:29.971Z,28.98
2023-03-17T15:33:57.301Z,29.45
2023-03-17T15:36:32.462Z,29.63
2023-03-17T15:38:59.383Z,29.58
2023-03-17T15:41:26.017Z,30.43
2023-03-17T15:43:53.568Z,30.02
2023-03-17T15:46:24.801Z,30.51
2023-03-17T15:48:51.540Z,29.95
2023-03-17T15:51:18.057Z,30.33
2023-03-17T15:53:44.562Z,29.86
2023-03-17T15:56:17.031Z,30.12
2023-03-17T15:58:43.504Z,30.32
2023-03-17T16:01:12.413Z,29.91
2023-03-17T16:03:41.306Z,30.43
2023-03-17T16:06:17.923Z,30.94
2023-03-17T16:08:45.239Z,31.53
2023-03-17T16:11:17.724Z,32.16
2023-03-17T16:13:44.213Z,32.22
2023-03-17T16:16:21.487Z,31.71
2023-03-17T16:18:54.058Z,32.30
2023-03-17T16:21:23.281Z,32.37
2023-03-17T16:23:50.004Z,32.19
2023-03-17T16:26:17.178Z,32.26
2023-03-17T16:28:46.111Z,32.43
2023-03-17T16:31:32.993Z,33.00
2023-03-17T16:34:00.015Z,33.30
2023-03-17T16:36:26.557Z,34.03
2023-03-17T16:38:53.330Z,34.16
2023-03-17T16:41:25.070Z,34.45
2023-03-17T16:43:55.111Z,34.55
2023-03-17T16:46:22.214Z,35.15
2023-03-17T16:48:49.841Z,34.50
2023-03-17T16:51:16.991Z,35.01
2023-03-17T16:53:43.858Z,35.54
2023-03-17T16:56:18.753Z,35.15
2023-03-17T16:58:46.618Z,35.95
2023-03-17T17:01:19.971Z,35.79
2023-03-17T17:03:46.636Z,35.07
2023-03-17T17:06:14.394Z,35.12
2023-03-17T17:08:45.313Z,35.26
2023-03-17T17:11:13.393Z,35.59
2023-03-17T17:13:44.949Z,35.66
2023-03-17T17:16:26.779Z,35.55
2023-03-17T17:18:53.784Z,35.78
2023-03-17T17:21:20.478Z,36.13
2023-03-17T17:23:47.369Z,36.39
2023-03-17T17:26:14.548Z,37.14
2023-03-17T17:28:40.963Z,37.21
2023-03-17T17:31:08.463Z,38.04
2023-03-17T17:33:36.344Z,38.12
2023-03-17T17:36:05.799Z,38.87
2023-03-17T17:38:32.561Z,39.12
2023-03-17T17:41:03.212Z,38.71
2023-03-17T17:43:29.920Z,39.28
2023-03-17T17:45:56.545Z,40.13
2023-03-17T17:48:25.413Z,40.38
2023-03-17T17:50:53.762Z,40.42
2023-03-17T17:53:20.724Z,40.91
2023-03-17T17:55:48.790Z,40.47
2023-03-17T17:58:18.082Z,40.73
2023-03-17T18:00:44.860Z,40.50
2023-03-17T18:03:11.342Z,40.48
2023-03-17T18:05:38.344Z,41.01
2023-03-17T18:08:05.297Z,41.12
2023-03-17T18:10:32.379Z,41.03
2023-03-17T18:12:59.594Z,41.60
2023-03-17T18:15:27.493Z,41.47
2023-03-17T18:17:54.047Z,41.77
2023-03-17T18:20:22.953Z,42.15
2023-03-17T18:22:50.690Z,42.09
2023-03-17T18:25:17.660Z,42.57
2023-03-17T18:27:45.582Z,43.59
2023-03-17T18:30:18.870Z,43.26
2023-03-17T18:32:45.656Z,43.79
2023-03-17T18:35:15.697Z,43.70
2023-03-17T18:37:42.336Z,43.88
2023-03-17T18:40:15.270Z,44.11
2023-03-17T18:42:42.829Z,44.50
2023-03-17T18:45:10.299Z,45.54
2023-03-17T18:47:38.779Z,45.70
2023-03-17T18:50:07.002Z,46.21
2023-03-17T18:52:35.515Z,45.70
2023-03-17T18:55:02.064Z,45.20
2023-03-17T18:57:28.553Z,45.33
2023-03-17T18:59:55.612Z,45.00
2023-03-17T19:02:22.599Z,45.11
2023-03-17T19:04:51.639Z,44.79
2023-03-17T19:07:18.273Z,44.79
2023-03-17T19:09:44.970Z,44.75
2023-03-17T19:12:11.552Z,44.88
2023-03-17T19:14:41.116Z,44.50
2023-03-17T19:17:08.674Z,44.46
2023-03-17T19:19:35.675Z,44.91
2023-03-17T19:22:03.774Z,44.39
2023-03-17T19:24:31.602Z,44.37
2023-03-17T19:26:58.043Z,44.12
2023-03-17T19:29:24.789Z,44.13
2023-03-17T19:31:51.228Z,44.58
2023-03-17T19:34:17.781Z,44.40
2023-03-17T19:36:46.515Z,44.75
2023-03-17T19:39:13.802Z,43.80
2023-03-17T19:41:40.380Z,43.58
2023-03-17T19:44:07.644Z,44.02
2023-03-17T19:46:36.071Z,44.49
2023-03-17T19:49:03.022Z,43.68
2023-03-17T19:51:29.437Z,43.50
2023-03-17T19:53:56.178Z,43.07
2023-03-17T19:56:23.103Z,43.63
2023-03-17T19:58:49.740Z,43.79
2023-03-17T20:01:17.131Z,43.19
2023-03-17T20:03:43.869Z,43.40
2023-03-17T20:06:14.549Z,43.49
2023-03-17T20:08:42.729Z,43.02
2023-03-17T20:11:10.251Z,43.32
2023-03-17T20:13:37.278Z,43.22
2023-03-17T20:16:04.813Z,43.91
2023-03-17T20:18:31.751Z,43.22
2023-03-17T20:21:00.140Z,43.03
2023-03-17T20:23:27.267Z,43.86
2023-03-17T20:25:53.781Z,43.91
2023-03-17T20:28:21.451Z,43.73
2023-03-17T20:30:49.293Z,43.68
2023-03-17T20:33:16.699Z,43.61
2023-03-17T20:35:46.724Z,44.65
2023-03-17T20:38:14.634Z,44.24
2023-03-17T20:40:41.776Z,44.98
2023-03-17T20:43:09.395Z,44.50
2023-03-17T20:45:36.881Z,43.86
2023-03-17T20:48:04.960Z,43.93
2023-03-17T20:50:34.292Z,44.10
2023-03-17T20:53:01.544Z,44.09
2023-03-17T20:55:28.913Z,43.67
2023-03-17T20:57:58.638Z,43.34
2023-03-17T21:00:26.173Z,43.89
2023-03-17T21:02:53.069Z,43.94
2023-03-17T21:05:23.022Z,43.53
2023-03-17T21:07:49.971Z,44.27
2023-03-17T21:10:17.359Z,44.15
2023-03-17T21:12:44.224Z,44.02
2023-03-17T21:15:11.235Z,44.51
2023-03-17T21:17:41.980Z,43.59
2023-03-17T21:20:12.074Z,43.21
2023-03-17T21:22:39.811Z,43.64
2023-03-17T21:25:08.646Z,42.91
2023-03-17T21:27:39.301Z,43.23
2023-03-17T21:30:09.562Z,43.06
2023-03-17T21:32:36.206Z,43.45
2023-03-17T21:35:03.490Z,43.17
2023-03-17T21:37:30.297Z,42.68
2023-03-17T21:39:56.836Z,42.98
2023-03-17T21:42:24.626Z,43.22
2023-03-17T21:44:52.234Z,43.19
2023-03-17T21:47:20.097Z,43.43
2023-03-17T21:49:46.796Z,43.42
2023-03-17T21:52:14.836Z,43.13
2023-03-17T21:54:41.833Z,43.44
2023-03-17T21:57:08.400Z,43.58
2023-03-17T21:59:35.678Z,43.07
2023-03-17T22:02:02.935Z,42.31
2023-03-17T22:04:29.860Z,43.16
2023-03-17T22:06:56.774Z,43.00
2023-03-17T22:09:23.218Z,43.14
2023-03-17T22:11:49.787Z,43.01
2023-03-17T22:14:19.976Z,43.17
2023-03-17T22:16:47.680Z,42.98
2023-03-17T22:19:14.314Z,43.24
2023-03-17T22:21:41.597Z,43.09
2023-03-17T22:24:08.398Z,43.25
2023-03-17T22:26:35.014Z,42.89
2023-03-17T22:29:01.553Z,43.50
2023-03-17T22:31:28.889Z,43.32
2023-03-17T22:33:57.781Z,43.15
2023-03-17T22:36:25.600Z,42.95
2023-03-17T22:38:52.053Z,43.30
2023-03-17T22:41:21.588Z,43.57
2023-03-17T22:43:48.209Z,43.38
2023-03-17T22:46:15.807Z,43.21
2023-03-17T22:48:42.329Z,43.11
2023-03-17T22:51:14.481Z,43.04
2023-03-17T22:53:41.334Z,42.85
2023-03-17T22:56:09.418Z,43.03
2023-03-17T22:58:35.890Z,42.94
2023-03-17T23:01:03.142Z,42.99
2023-03-17T23:03:30.069Z,43.03
2023-03-17T23:05:59.536Z,43.05
2023-03-17T23:08:29.263Z,42.88
2023-03-17T23:10:56.741Z,42.85
2023-03-17T23:13:24.194Z,43.33
2023-03-17T23:15:51.164Z,43.49
2023-03-17T23:18:17.924Z,43.23
2023-03-17T23:20:44.432Z,43.32
2023-03-17T23:23:12.236Z,43.47
2023-03-17T23:25:38.726Z,43.39
2023-03-17T23:28:06.130Z,43.49
2023-03-17T23:30:33.001Z,44.37
2023-03-17T23:32:59.750Z,44.56
2023-03-17T23:35:26.261Z,44.72
2023-03-17T23:37:52.777Z,44.16
2023-03-17T23:40:19.256Z,43.56
2023-03-17T23:42:48.992Z,43.48
2023-03-17T23:45:16.684Z,43.71
2023-03-17T23:47:44.054Z,44.08
2023-03-17T23:50:12.247Z,44.94
2023-03-17T23:52:38.863Z,44.46
2023-03-17T23:55:06.626Z,44.52
2023-03-17T23:57:34.745Z,44.21
